sensor_id;sensor_type;location;lat;lon;timestamp;temperature;humidity
43561;DHT22;32305;46.410;17.394;2024-01-27T00:02:12;21.90;34.20
43561;DHT22;32305;46.410;17.394;2024-01-27T00:04:39;21.90;34.20
43561;DHT22;32305;46.410;17.394;2024-01-27T00:07:06;21.90;34.20
43561;DHT22;32305;46.410;17.394;2024-01-27T00:09:33;21.80;34.10
43561;DHT22;32305;46.410;17.394;2024-01-27T00:12:00;21.80;34.20
43561;DHT22;32305;46.410;17.394;2024-01-27T00:14:28;21.80;34.20
43561;DHT22;32305;46.410;17.394;2024-01-27T00:16:54;21.80;34.20
43561;DHT22;32305;46.410;17.394;2024-01-27T00:19:21;21.80;34.30
43561;DHT22;32305;46.410;17.394;2024-01-27T00:21:49;21.80;34.80
43561;DHT22;32305;46.410;17.394;2024-01-27T00:24:15;21.80;34.30
43561;DHT22;32305;46.410;17.394;2024-01-27T00:26:43;21.80;34.30
43561;DHT22;32305;46.410;17.394;2024-01-27T00:29:10;21.70;34.20
43561;DHT22;32305;46.410;17.394;2024-01-27T00:31:37;21.80;34.30
43561;DHT22;32305;46.410;17.394;2024-01-27T00:34:04;21.80;34.30
43561;DHT22;32305;46.410;17.394;2024-01-27T00:36:31;21.80;34.30
43561;DHT22;32305;46.410;17.394;2024-01-27T00:38:58;21.80;34.30
43561;DHT22;32305;46.410;17.394;2024-01-27T00:41:25;21.80;34.30
43561;DHT22;32305;46.410;17.394;2024-01-27T00:43:52;21.80;34.30
43561;DHT22;32305;46.410;17.394;2024-01-27T00:46:19;21.80;34.30
43561;DHT22;32305;46.410;17.394;2024-01-27T00:48:46;21.80;34.30
43561;DHT22;32305;46.410;17.394;2024-01-27T00:51:13;21.80;34.30
43561;DHT22;32305;46.410;17.394;2024-01-27T00:53:40;21.80;34.30
43561;DHT22;32305;46.410;17.394;2024-01-27T00:56:07;21.70;34.20
43561;DHT22;32305;46.410;17.394;2024-01-27T00:58:34;21.80;34.30
43561;DHT22;32305;46.410;17.394;2024-01-27T01:01:01;21.70;34.20
43561;DHT22;32305;46.410;17.394;2024-01-27T01:03:28;21.70;34.20
43561;DHT22;32305;46.410;17.394;2024-01-27T01:05:55;21.70;34.20
43561;DHT22;32305;46.410;17.394;2024-01-27T01:08:22;21.70;34.30
43561;DHT22;32305;46.410;17.394;2024-01-27T01:10:49;21.70;34.30
43561;DHT22;32305;46.410;17.394;2024-01-27T01:13:16;21.70;34.30
43561;DHT22;32305;46.410;17.394;2024-01-27T01:15:43;21.70;34.40
43561;DHT22;32305;46.410;17.394;2024-01-27T01:18:10;21.70;34.40
43561;DHT22;32305;46.410;17.394;2024-01-27T01:20:37;21.60;34.30
43561;DHT22;32305;46.410;17.394;2024-01-27T01:23:04;21.60;34.30
43561;DHT22;32305;46.410;17.394;2024-01-27T01:25:31;21.60;34.30
43561;DHT22;32305;46.410;17.394;2024-01-27T01:27:58;21.60;34.40
43561;DHT22;32305;46.410;17.394;2024-01-27T01:30:24;21.60;34.30
43561;DHT22;32305;46.410;17.394;2024-01-27T01:32:52;21.60;34.30
43561;DHT22;32305;46.410;17.394;2024-01-27T01:35:19;21.60;34.20
43561;DHT22;32305;46.410;17.394;2024-01-27T01:37:46;21.60;34.20
43561;DHT22;32305;46.410;17.394;2024-01-27T01:40:14;21.60;34.20
43561;DHT22;32305;46.410;17.394;2024-01-27T01:42:42;21.50;34.20
43561;DHT22;32305;46.410;17.394;2024-01-27T01:45:10;21.50;34.20
43561;DHT22;32305;46.410;17.394;2024-01-27T01:47:38;21.50;34.20
43561;DHT22;32305;46.410;17.394;2024-01-27T01:50:05;21.50;34.10
43561;DHT22;32305;46.410;17.394;2024-01-27T01:52:32;21.50;34.10
43561;DHT22;32305;46.410;17.394;2024-01-27T01:54:59;21.50;34.00
43561;DHT22;32305;46.410;17.394;2024-01-27T01:57:26;21.50;34.00
43561;DHT22;32305;46.410;17.394;2024-01-27T01:59:53;21.50;34.00
43561;DHT22;32305;46.410;17.394;2024-01-27T02:02:20;21.50;34.00
43561;DHT22;32305;46.410;17.394;2024-01-27T02:04:47;21.50;33.90
43561;DHT22;32305;46.410;17.394;2024-01-27T02:07:14;21.50;33.90
43561;DHT22;32305;46.410;17.394;2024-01-27T02:09:42;21.50;33.90
43561;DHT22;32305;46.410;17.394;2024-01-27T02:12:08;21.50;33.90
43561;DHT22;32305;46.410;17.394;2024-01-27T02:14:35;21.50;33.80
43561;DHT22;32305;46.410;17.394;2024-01-27T02:17:03;21.50;33.80
43561;DHT22;32305;46.410;17.394;2024-01-27T02:19:30;21.50;33.80
43561;DHT22;32305;46.410;17.394;2024-01-27T02:21:58;21.40;33.80
43561;DHT22;32305;46.410;17.394;2024-01-27T02:24:25;21.40;33.80
43561;DHT22;32305;46.410;17.394;2024-01-27T02:26:52;21.50;33.80
43561;DHT22;32305;46.410;17.394;2024-01-27T02:29:19;21.40;33.70
43561;DHT22;32305;46.410;17.394;2024-01-27T02:31:46;21.50;33.70
43561;DHT22;32305;46.410;17.394;2024-01-27T02:34:13;21.40;34.30
43561;DHT22;32305;46.410;17.394;2024-01-27T02:36:40;21.40;33.70
43561;DHT22;32305;46.410;17.394;2024-01-27T02:39:07;21.40;33.70
43561;DHT22;32305;46.410;17.394;2024-01-27T02:41:34;21.40;33.70
43561;DHT22;32305;46.410;17.394;2024-01-27T02:44:05;21.40;33.60
43561;DHT22;32305;46.410;17.394;2024-01-27T02:46:32;21.50;33.70
43561;DHT22;32305;46.410;17.394;2024-01-27T02:48:59;21.40;33.70
43561;DHT22;32305;46.410;17.394;2024-01-27T02:51:26;21.40;33.70
43561;DHT22;32305;46.410;17.394;2024-01-27T02:53:53;21.40;33.70
43561;DHT22;32305;46.410;17.394;2024-01-27T02:56:20;21.40;33.60
43561;DHT22;32305;46.410;17.394;2024-01-27T02:58:47;21.50;33.70
43561;DHT22;32305;46.410;17.394;2024-01-27T03:01:14;21.50;33.70
43561;DHT22;32305;46.410;17.394;2024-01-27T03:03:42;21.50;33.60
43561;DHT22;32305;46.410;17.394;2024-01-27T03:06:09;21.50;33.60
43561;DHT22;32305;46.410;17.394;2024-01-27T03:08:36;21.50;33.60
43561;DHT22;32305;46.410;17.394;2024-01-27T03:11:03;21.50;33.60
43561;DHT22;32305;46.410;17.394;2024-01-27T03:13:30;21.50;33.60
43561;DHT22;32305;46.410;17.394;2024-01-27T03:15:57;21.50;33.60
43561;DHT22;32305;46.410;17.394;2024-01-27T03:18:24;21.40;33.60
43561;DHT22;32305;46.410;17.394;2024-01-27T03:20:52;21.40;33.60
43561;DHT22;32305;46.410;17.394;2024-01-27T03:23:18;21.40;33.60
43561;DHT22;32305;46.410;17.394;2024-01-27T03:25:45;21.40;33.60
43561;DHT22;32305;46.410;17.394;2024-01-27T03:28:12;21.40;33.60
43561;DHT22;32305;46.410;17.394;2024-01-27T03:30:39;21.40;33.60
43561;DHT22;32305;46.410;17.394;2024-01-27T03:33:06;21.40;33.60
43561;DHT22;32305;46.410;17.394;2024-01-27T03:35:37;21.40;33.60
43561;DHT22;32305;46.410;17.394;2024-01-27T03:38:07;21.40;33.70
43561;DHT22;32305;46.410;17.394;2024-01-27T03:40:34;21.40;33.70
43561;DHT22;32305;46.410;17.394;2024-01-27T03:43:01;21.40;33.70
43561;DHT22;32305;46.410;17.394;2024-01-27T03:45:28;21.40;33.80
43561;DHT22;32305;46.410;17.394;2024-01-27T03:47:55;21.40;33.80
43561;DHT22;32305;46.410;17.394;2024-01-27T03:50:22;21.40;33.80
43561;DHT22;32305;46.410;17.394;2024-01-27T03:52:49;21.30;33.70
43561;DHT22;32305;46.410;17.394;2024-01-27T03:55:16;21.30;33.70
43561;DHT22;32305;46.410;17.394;2024-01-27T03:57:43;21.30;33.80
43561;DHT22;32305;46.410;17.394;2024-01-27T04:00:10;21.30;33.80
43561;DHT22;32305;46.410;17.394;2024-01-27T04:02:39;21.30;33.80
43561;DHT22;32305;46.410;17.394;2024-01-27T04:05:06;21.40;33.80
43561;DHT22;32305;46.410;17.394;2024-01-27T04:07:33;21.40;33.80
43561;DHT22;32305;46.410;17.394;2024-01-27T04:10:01;21.40;33.80
43561;DHT22;32305;46.410;17.394;2024-01-27T04:12:28;21.40;33.80
43561;DHT22;32305;46.410;17.394;2024-01-27T04:14:56;21.40;33.80
43561;DHT22;32305;46.410;17.394;2024-01-27T04:17:24;21.40;33.80
43561;DHT22;32305;46.410;17.394;2024-01-27T04:19:51;21.40;33.80
43561;DHT22;32305;46.410;17.394;2024-01-27T04:22:18;21.40;33.80
43561;DHT22;32305;46.410;17.394;2024-01-27T04:24:45;21.40;33.80
43561;DHT22;32305;46.410;17.394;2024-01-27T04:27:12;21.40;33.90
43561;DHT22;32305;46.410;17.394;2024-01-27T04:29:39;21.40;33.90
43561;DHT22;32305;46.410;17.394;2024-01-27T04:32:06;21.30;33.80
43561;DHT22;32305;46.410;17.394;2024-01-27T04:34:33;21.40;34.00
43561;DHT22;32305;46.410;17.394;2024-01-27T04:37:00;21.40;34.00
43561;DHT22;32305;46.410;17.394;2024-01-27T04:39:27;21.30;33.80
43561;DHT22;32305;46.410;17.394;2024-01-27T04:41:55;21.30;33.60
43561;DHT22;32305;46.410;17.394;2024-01-27T04:44:22;21.40;33.60
43561;DHT22;32305;46.410;17.394;2024-01-27T04:46:49;21.40;33.40
43561;DHT22;32305;46.410;17.394;2024-01-27T04:49:15;21.40;33.30
43561;DHT22;32305;46.410;17.394;2024-01-27T04:51:42;21.40;33.20
43561;DHT22;32305;46.410;17.394;2024-01-27T04:54:09;21.40;33.10
43561;DHT22;32305;46.410;17.394;2024-01-27T04:56:36;21.40;33.00
43561;DHT22;32305;46.410;17.394;2024-01-27T04:59:03;21.40;32.90
43561;DHT22;32305;46.410;17.394;2024-01-27T05:01:31;21.40;32.90
43561;DHT22;32305;46.410;17.394;2024-01-27T05:03:58;21.40;32.80
43561;DHT22;32305;46.410;17.394;2024-01-27T05:06:25;21.40;32.80
43561;DHT22;32305;46.410;17.394;2024-01-27T05:08:52;21.40;32.70
43561;DHT22;32305;46.410;17.394;2024-01-27T05:11:29;21.40;32.60
43561;DHT22;32305;46.410;17.394;2024-01-27T05:13:56;21.40;32.60
43561;DHT22;32305;46.410;17.394;2024-01-27T05:16:23;21.40;32.60
43561;DHT22;32305;46.410;17.394;2024-01-27T05:18:53;21.40;32.50
43561;DHT22;32305;46.410;17.394;2024-01-27T05:21:20;21.40;32.40
43561;DHT22;32305;46.410;17.394;2024-01-27T05:23:47;21.40;32.30
43561;DHT22;32305;46.410;17.394;2024-01-27T05:26:13;21.40;32.30
43561;DHT22;32305;46.410;17.394;2024-01-27T05:28:40;21.50;32.40
43561;DHT22;32305;46.410;17.394;2024-01-27T05:31:07;21.40;32.30
43561;DHT22;32305;46.410;17.394;2024-01-27T05:33:35;21.40;32.30
43561;DHT22;32305;46.410;17.394;2024-01-27T05:36:03;21.40;32.20
43561;DHT22;32305;46.410;17.394;2024-01-27T05:38:30;21.40;32.20
43561;DHT22;32305;46.410;17.394;2024-01-27T05:41:01;21.40;32.10
43561;DHT22;32305;46.410;17.394;2024-01-27T05:43:28;21.40;32.10
43561;DHT22;32305;46.410;17.394;2024-01-27T05:45:55;21.40;32.10
43561;DHT22;32305;46.410;17.394;2024-01-27T05:48:22;21.40;32.10
43561;DHT22;32305;46.410;17.394;2024-01-27T05:50:57;21.40;32.00
43561;DHT22;32305;46.410;17.394;2024-01-27T05:53:24;21.40;32.00
43561;DHT22;32305;46.410;17.394;2024-01-27T05:55:51;21.40;32.00
43561;DHT22;32305;46.410;17.394;2024-01-27T05:58:19;21.40;32.00
43561;DHT22;32305;46.410;17.394;2024-01-27T06:00:49;21.40;31.90
43561;DHT22;32305;46.410;17.394;2024-01-27T06:03:16;21.40;31.90
43561;DHT22;32305;46.410;17.394;2024-01-27T06:05:44;21.40;31.90
43561;DHT22;32305;46.410;17.394;2024-01-27T06:08:11;21.40;31.80
43561;DHT22;32305;46.410;17.394;2024-01-27T06:10:39;21.40;31.90
43561;DHT22;32305;46.410;17.394;2024-01-27T06:13:05;21.40;31.80
43561;DHT22;32305;46.410;17.394;2024-01-27T06:15:32;21.40;31.70
43561;DHT22;32305;46.410;17.394;2024-01-27T06:18:00;21.40;31.70
43561;DHT22;32305;46.410;17.394;2024-01-27T06:20:29;21.40;31.70
43561;DHT22;32305;46.410;17.394;2024-01-27T06:22:56;21.40;31.70
43561;DHT22;32305;46.410;17.394;2024-01-27T06:25:24;21.40;31.60
43561;DHT22;32305;46.410;17.394;2024-01-27T06:27:51;21.40;31.60
43561;DHT22;32305;46.410;17.394;2024-01-27T06:30:18;21.40;31.60
43561;DHT22;32305;46.410;17.394;2024-01-27T06:32:45;21.40;31.50
43561;DHT22;32305;46.410;17.394;2024-01-27T06:35:13;21.40;31.50
43561;DHT22;32305;46.410;17.394;2024-01-27T06:37:40;21.40;31.40
43561;DHT22;32305;46.410;17.394;2024-01-27T06:40:07;21.40;31.40
43561;DHT22;32305;46.410;17.394;2024-01-27T06:42:35;21.40;31.30
43561;DHT22;32305;46.410;17.394;2024-01-27T06:45:03;21.40;31.20
43561;DHT22;32305;46.410;17.394;2024-01-27T06:47:30;21.40;31.20
43561;DHT22;32305;46.410;17.394;2024-01-27T06:49:57;21.40;31.20
43561;DHT22;32305;46.410;17.394;2024-01-27T06:52:24;21.40;31.10
43561;DHT22;32305;46.410;17.394;2024-01-27T06:54:50;21.50;31.10
43561;DHT22;32305;46.410;17.394;2024-01-27T06:57:21;21.50;31.10
43561;DHT22;32305;46.410;17.394;2024-01-27T06:59:48;21.50;31.10
43561;DHT22;32305;46.410;17.394;2024-01-27T07:02:25;21.50;31.00
43561;DHT22;32305;46.410;17.394;2024-01-27T07:04:55;21.50;31.00
43561;DHT22;32305;46.410;17.394;2024-01-27T07:07:24;21.50;30.90
43561;DHT22;32305;46.410;17.394;2024-01-27T07:09:52;21.50;30.90
43561;DHT22;32305;46.410;17.394;2024-01-27T07:12:19;21.50;30.90
43561;DHT22;32305;46.410;17.394;2024-01-27T07:14:45;21.60;30.90
43561;DHT22;32305;46.410;17.394;2024-01-27T07:17:12;21.50;30.80
43561;DHT22;32305;46.410;17.394;2024-01-27T07:19:39;21.60;30.80
43561;DHT22;32305;46.410;17.394;2024-01-27T07:22:07;21.60;30.80
43561;DHT22;32305;46.410;17.394;2024-01-27T07:24:33;21.60;30.90
43561;DHT22;32305;46.410;17.394;2024-01-27T07:27:00;21.60;30.80
43561;DHT22;32305;46.410;17.394;2024-01-27T07:29:28;21.60;30.70
43561;DHT22;32305;46.410;17.394;2024-01-27T07:31:54;21.60;30.70
43561;DHT22;32305;46.410;17.394;2024-01-27T07:34:22;21.70;30.80
43561;DHT22;32305;46.410;17.394;2024-01-27T07:36:49;21.70;30.70
43561;DHT22;32305;46.410;17.394;2024-01-27T07:39:16;21.70;30.70
43561;DHT22;32305;46.410;17.394;2024-01-27T07:41:43;21.70;30.70
43561;DHT22;32305;46.410;17.394;2024-01-27T07:44:10;21.70;30.60
43561;DHT22;32305;46.410;17.394;2024-01-27T07:46:37;21.80;30.60
43561;DHT22;32305;46.410;17.394;2024-01-27T07:49:05;21.80;30.60
43561;DHT22;32305;46.410;17.394;2024-01-27T07:51:34;21.80;30.60
43561;DHT22;32305;46.410;17.394;2024-01-27T07:54:01;21.80;30.60
43561;DHT22;32305;46.410;17.394;2024-01-27T07:56:28;21.80;30.60
43561;DHT22;32305;46.410;17.394;2024-01-27T07:58:55;21.80;30.60
43561;DHT22;32305;46.410;17.394;2024-01-27T08:01:22;21.80;30.50
43561;DHT22;32305;46.410;17.394;2024-01-27T08:03:49;21.80;30.50
43561;DHT22;32305;46.410;17.394;2024-01-27T08:06:18;21.80;30.50
43561;DHT22;32305;46.410;17.394;2024-01-27T08:08:48;21.80;30.50
43561;DHT22;32305;46.410;17.394;2024-01-27T08:11:15;21.80;30.50
43561;DHT22;32305;46.410;17.394;2024-01-27T08:13:44;21.80;30.50
43561;DHT22;32305;46.410;17.394;2024-01-27T08:16:11;21.80;30.50
43561;DHT22;32305;46.410;17.394;2024-01-27T08:18:39;21.90;30.50
43561;DHT22;32305;46.410;17.394;2024-01-27T08:21:09;21.90;30.50
43561;DHT22;32305;46.410;17.394;2024-01-27T08:23:36;21.90;30.40
43561;DHT22;32305;46.410;17.394;2024-01-27T08:26:03;21.90;30.40
43561;DHT22;32305;46.410;17.394;2024-01-27T08:28:30;21.90;30.40
43561;DHT22;32305;46.410;17.394;2024-01-27T08:30:57;21.90;30.40
43561;DHT22;32305;46.410;17.394;2024-01-27T08:33:26;22.00;30.40
43561;DHT22;32305;46.410;17.394;2024-01-27T08:35:53;22.00;30.30
43561;DHT22;32305;46.410;17.394;2024-01-27T08:38:20;22.00;30.30
43561;DHT22;32305;46.410;17.394;2024-01-27T08:40:47;22.00;30.20
43561;DHT22;32305;46.410;17.394;2024-01-27T08:43:14;22.00;30.20
43561;DHT22;32305;46.410;17.394;2024-01-27T08:45:41;22.00;30.20
43561;DHT22;32305;46.410;17.394;2024-01-27T08:48:08;22.00;30.10
43561;DHT22;32305;46.410;17.394;2024-01-27T08:50:36;22.10;30.10
43561;DHT22;32305;46.410;17.394;2024-01-27T08:53:03;22.10;30.10
43561;DHT22;32305;46.410;17.394;2024-01-27T08:55:30;22.10;30.00
43561;DHT22;32305;46.410;17.394;2024-01-27T08:57:57;22.10;30.00
43561;DHT22;32305;46.410;17.394;2024-01-27T09:00:24;22.10;30.00
43561;DHT22;32305;46.410;17.394;2024-01-27T09:02:51;22.10;30.00
43561;DHT22;32305;46.410;17.394;2024-01-27T09:05:19;22.10;30.00
43561;DHT22;32305;46.410;17.394;2024-01-27T09:07:46;22.20;30.00
43561;DHT22;32305;46.410;17.394;2024-01-27T09:10:13;22.20;30.00
43561;DHT22;32305;46.410;17.394;2024-01-27T09:12:42;22.20;30.00
43561;DHT22;32305;46.410;17.394;2024-01-27T09:15:09;22.20;30.00
43561;DHT22;32305;46.410;17.394;2024-01-27T09:17:36;22.30;30.00
43561;DHT22;32305;46.410;17.394;2024-01-27T09:20:04;22.30;30.00
43561;DHT22;32305;46.410;17.394;2024-01-27T09:22:31;22.40;30.00
43561;DHT22;32305;46.410;17.394;2024-01-27T09:24:58;22.40;30.00
43561;DHT22;32305;46.410;17.394;2024-01-27T09:27:25;22.40;30.00
43561;DHT22;32305;46.410;17.394;2024-01-27T09:29:52;22.40;29.90
43561;DHT22;32305;46.410;17.394;2024-01-27T09:32:19;22.40;29.90
43561;DHT22;32305;46.410;17.394;2024-01-27T09:34:46;22.50;29.90
43561;DHT22;32305;46.410;17.394;2024-01-27T09:37:13;22.50;29.90
43561;DHT22;32305;46.410;17.394;2024-01-27T09:39:40;22.50;29.80
43561;DHT22;32305;46.410;17.394;2024-01-27T09:42:07;22.60;29.90
43561;DHT22;32305;46.410;17.394;2024-01-27T09:44:38;22.60;29.80
43561;DHT22;32305;46.410;17.394;2024-01-27T09:47:06;22.60;29.80
43561;DHT22;32305;46.410;17.394;2024-01-27T09:49:33;22.60;29.80
43561;DHT22;32305;46.410;17.394;2024-01-27T09:52:01;22.60;29.80
43561;DHT22;32305;46.410;17.394;2024-01-27T09:54:28;22.70;29.80
43561;DHT22;32305;46.410;17.394;2024-01-27T09:56:55;22.70;29.80
43561;DHT22;32305;46.410;17.394;2024-01-27T09:59:22;22.70;29.70
43561;DHT22;32305;46.410;17.394;2024-01-27T10:01:50;22.70;29.70
43561;DHT22;32305;46.410;17.394;2024-01-27T10:04:19;22.70;29.60
43561;DHT22;32305;46.410;17.394;2024-01-27T10:06:47;22.80;29.60
43561;DHT22;32305;46.410;17.394;2024-01-27T10:09:14;22.80;29.60
43561;DHT22;32305;46.410;17.394;2024-01-27T10:11:42;22.80;29.60
43561;DHT22;32305;46.410;17.394;2024-01-27T10:14:11;22.80;29.60
43561;DHT22;32305;46.410;17.394;2024-01-27T10:16:42;22.80;29.60
43561;DHT22;32305;46.410;17.394;2024-01-27T10:19:14;22.80;29.60
43561;DHT22;32305;46.410;17.394;2024-01-27T10:21:43;22.80;29.50
43561;DHT22;32305;46.410;17.394;2024-01-27T10:24:10;22.80;29.50
43561;DHT22;32305;46.410;17.394;2024-01-27T10:26:37;22.90;29.50
43561;DHT22;32305;46.410;17.394;2024-01-27T10:29:04;22.90;29.50
43561;DHT22;32305;46.410;17.394;2024-01-27T10:31:33;22.90;29.50
43561;DHT22;32305;46.410;17.394;2024-01-27T10:34:00;22.90;29.40
43561;DHT22;32305;46.410;17.394;2024-01-27T10:36:40;22.90;29.40
43561;DHT22;32305;46.410;17.394;2024-01-27T10:39:15;22.90;29.30
43561;DHT22;32305;46.410;17.394;2024-01-27T10:41:44;22.90;29.30
43561;DHT22;32305;46.410;17.394;2024-01-27T10:44:13;22.90;29.30
43561;DHT22;32305;46.410;17.394;2024-01-27T10:46:44;22.90;29.20
43561;DHT22;32305;46.410;17.394;2024-01-27T10:49:14;23.00;29.30
43561;DHT22;32305;46.410;17.394;2024-01-27T10:51:43;23.00;29.20
43561;DHT22;32305;46.410;17.394;2024-01-27T10:54:14;23.00;29.20
43561;DHT22;32305;46.410;17.394;2024-01-27T10:56:42;23.00;29.10
43561;DHT22;32305;46.410;17.394;2024-01-27T10:59:10;23.00;29.10
43561;DHT22;32305;46.410;17.394;2024-01-27T11:01:38;23.00;29.10
43561;DHT22;32305;46.410;17.394;2024-01-27T11:04:06;23.00;29.10
43561;DHT22;32305;46.410;17.394;2024-01-27T11:06:34;23.10;29.10
43561;DHT22;32305;46.410;17.394;2024-01-27T11:09:02;23.10;29.10
43561;DHT22;32305;46.410;17.394;2024-01-27T11:11:32;23.10;29.10
43561;DHT22;32305;46.410;17.394;2024-01-27T11:13:59;23.10;29.00
43561;DHT22;32305;46.410;17.394;2024-01-27T11:16:26;23.10;29.00
43561;DHT22;32305;46.410;17.394;2024-01-27T11:18:55;23.10;29.00
43561;DHT22;32305;46.410;17.394;2024-01-27T11:21:23;23.10;29.00
43561;DHT22;32305;46.410;17.394;2024-01-27T11:23:50;23.20;29.00
43561;DHT22;32305;46.410;17.394;2024-01-27T11:26:21;23.20;29.00
43561;DHT22;32305;46.410;17.394;2024-01-27T11:28:48;23.20;29.00
43561;DHT22;32305;46.410;17.394;2024-01-27T11:31:19;23.20;28.90
43561;DHT22;32305;46.410;17.394;2024-01-27T11:33:47;23.20;28.90
43561;DHT22;32305;46.410;17.394;2024-01-27T11:36:18;23.20;28.90
43561;DHT22;32305;46.410;17.394;2024-01-27T11:38:46;23.20;28.80
43561;DHT22;32305;46.410;17.394;2024-01-27T11:41:13;23.30;28.90
43561;DHT22;32305;46.410;17.394;2024-01-27T11:43:40;23.30;28.80
43561;DHT22;32305;46.410;17.394;2024-01-27T11:46:06;23.30;28.80
43561;DHT22;32305;46.410;17.394;2024-01-27T11:48:41;23.30;28.80
43561;DHT22;32305;46.410;17.394;2024-01-27T11:51:11;23.30;28.70
43561;DHT22;32305;46.410;17.394;2024-01-27T11:53:39;23.30;28.70
43561;DHT22;32305;46.410;17.394;2024-01-27T11:56:06;23.30;28.70
43561;DHT22;32305;46.410;17.394;2024-01-27T11:58:33;23.30;28.60
43561;DHT22;32305;46.410;17.394;2024-01-27T12:01:00;23.30;28.60
43561;DHT22;32305;46.410;17.394;2024-01-27T12:03:27;23.30;28.50
43561;DHT22;32305;46.410;17.394;2024-01-27T12:05:55;23.30;28.50
43561;DHT22;32305;46.410;17.394;2024-01-27T12:08:23;23.30;28.50
43561;DHT22;32305;46.410;17.394;2024-01-27T12:10:50;23.30;28.50
43561;DHT22;32305;46.410;17.394;2024-01-27T12:13:17;23.40;28.60
43561;DHT22;32305;46.410;17.394;2024-01-27T12:15:44;23.40;28.60
43561;DHT22;32305;46.410;17.394;2024-01-27T12:18:11;23.40;28.50
43561;DHT22;32305;46.410;17.394;2024-01-27T12:20:39;23.40;28.50
43561;DHT22;32305;46.410;17.394;2024-01-27T12:23:06;23.40;28.50
43561;DHT22;32305;46.410;17.394;2024-01-27T12:25:33;23.40;28.50
43561;DHT22;32305;46.410;17.394;2024-01-27T12:28:04;23.40;28.40
43561;DHT22;32305;46.410;17.394;2024-01-27T12:30:31;23.40;28.40
43561;DHT22;32305;46.410;17.394;2024-01-27T12:33:00;23.40;28.40
43561;DHT22;32305;46.410;17.394;2024-01-27T12:35:27;23.30;28.30
43561;DHT22;32305;46.410;17.394;2024-01-27T12:37:59;23.30;28.30
43561;DHT22;32305;46.410;17.394;2024-01-27T12:40:26;23.40;28.40
43561;DHT22;32305;46.410;17.394;2024-01-27T12:42:53;23.30;28.30
43561;DHT22;32305;46.410;17.394;2024-01-27T12:45:20;23.30;28.30
43561;DHT22;32305;46.410;17.394;2024-01-27T12:47:47;23.40;28.40
43561;DHT22;32305;46.410;17.394;2024-01-27T12:50:14;23.30;28.30
43561;DHT22;32305;46.410;17.394;2024-01-27T12:52:43;23.40;28.30
43561;DHT22;32305;46.410;17.394;2024-01-27T12:55:10;23.40;28.30
43561;DHT22;32305;46.410;17.394;2024-01-27T12:57:36;23.40;28.30
43561;DHT22;32305;46.410;17.394;2024-01-27T13:00:03;23.40;28.30
43561;DHT22;32305;46.410;17.394;2024-01-27T13:02:36;23.40;28.30
43561;DHT22;32305;46.410;17.394;2024-01-27T13:05:04;23.30;28.20
43561;DHT22;32305;46.410;17.394;2024-01-27T13:07:30;23.30;28.20
43561;DHT22;32305;46.410;17.394;2024-01-27T13:09:57;23.30;28.20
43561;DHT22;32305;46.410;17.394;2024-01-27T13:12:25;23.40;28.30
43561;DHT22;32305;46.410;17.394;2024-01-27T13:14:52;23.40;28.20
43561;DHT22;32305;46.410;17.394;2024-01-27T13:17:19;23.40;28.30
43561;DHT22;32305;46.410;17.394;2024-01-27T13:19:46;23.40;28.30
43561;DHT22;32305;46.410;17.394;2024-01-27T13:22:13;23.40;28.30
43561;DHT22;32305;46.410;17.394;2024-01-27T13:24:40;23.40;28.30
43561;DHT22;32305;46.410;17.394;2024-01-27T13:27:07;23.40;28.30
43561;DHT22;32305;46.410;17.394;2024-01-27T13:29:35;23.40;28.20
43561;DHT22;32305;46.410;17.394;2024-01-27T13:32:01;23.40;28.20
43561;DHT22;32305;46.410;17.394;2024-01-27T13:34:29;23.40;28.10
43561;DHT22;32305;46.410;17.394;2024-01-27T13:36:57;23.40;28.20
43561;DHT22;32305;46.410;17.394;2024-01-27T13:39:26;23.40;28.10
43561;DHT22;32305;46.410;17.394;2024-01-27T13:41:53;23.40;28.10
43561;DHT22;32305;46.410;17.394;2024-01-27T13:44:20;23.40;28.10
43561;DHT22;32305;46.410;17.394;2024-01-27T13:46:47;23.40;28.20
43561;DHT22;32305;46.410;17.394;2024-01-27T13:49:14;23.40;28.10
43561;DHT22;32305;46.410;17.394;2024-01-27T13:51:41;23.30;28.10
43561;DHT22;32305;46.410;17.394;2024-01-27T13:54:08;23.30;28.10
43561;DHT22;32305;46.410;17.394;2024-01-27T13:56:36;23.30;28.10
43561;DHT22;32305;46.410;17.394;2024-01-27T13:59:03;23.30;28.50
43561;DHT22;32305;46.410;17.394;2024-01-27T14:01:31;23.30;28.10
43561;DHT22;32305;46.410;17.394;2024-01-27T14:03:58;23.30;28.00
43561;DHT22;32305;46.410;17.394;2024-01-27T14:06:25;23.30;28.00
43561;DHT22;32305;46.410;17.394;2024-01-27T14:08:52;23.30;28.00
43561;DHT22;32305;46.410;17.394;2024-01-27T14:11:20;23.30;28.00
43561;DHT22;32305;46.410;17.394;2024-01-27T14:13:48;23.30;28.00
43561;DHT22;32305;46.410;17.394;2024-01-27T14:16:15;23.30;28.00
43561;DHT22;32305;46.410;17.394;2024-01-27T14:18:45;23.30;28.00
43561;DHT22;32305;46.410;17.394;2024-01-27T14:21:13;23.30;28.00
43561;DHT22;32305;46.410;17.394;2024-01-27T14:23:41;23.30;28.00
43561;DHT22;32305;46.410;17.394;2024-01-27T14:26:08;23.30;28.00
43561;DHT22;32305;46.410;17.394;2024-01-27T14:28:41;23.30;28.00
43561;DHT22;32305;46.410;17.394;2024-01-27T14:31:08;23.20;27.90
43561;DHT22;32305;46.410;17.394;2024-01-27T14:33:38;23.20;27.90
43561;DHT22;32305;46.410;17.394;2024-01-27T14:36:05;23.30;27.90
43561;DHT22;32305;46.410;17.394;2024-01-27T14:38:32;23.20;28.00
43561;DHT22;32305;46.410;17.394;2024-01-27T14:40:59;23.30;28.10
43561;DHT22;32305;46.410;17.394;2024-01-27T14:43:26;23.30;28.20
43561;DHT22;32305;46.410;17.394;2024-01-27T14:45:54;23.30;28.20
43561;DHT22;32305;46.410;17.394;2024-01-27T14:48:22;23.30;28.20
43561;DHT22;32305;46.410;17.394;2024-01-27T14:50:49;23.30;28.30
43561;DHT22;32305;46.410;17.394;2024-01-27T14:53:21;23.30;28.30
43561;DHT22;32305;46.410;17.394;2024-01-27T14:55:48;23.30;28.30
43561;DHT22;32305;46.410;17.394;2024-01-27T14:58:15;23.30;28.40
43561;DHT22;32305;46.410;17.394;2024-01-27T15:00:42;23.30;28.40
43561;DHT22;32305;46.410;17.394;2024-01-27T15:03:09;23.30;28.50
43561;DHT22;32305;46.410;17.394;2024-01-27T15:05:36;23.30;28.50
43561;DHT22;32305;46.410;17.394;2024-01-27T15:08:07;23.20;28.90
43561;DHT22;32305;46.410;17.394;2024-01-27T15:10:34;23.20;28.50
43561;DHT22;32305;46.410;17.394;2024-01-27T15:13:00;23.20;28.60
43561;DHT22;32305;46.410;17.394;2024-01-27T15:15:27;23.20;28.60
43561;DHT22;32305;46.410;17.394;2024-01-27T15:17:54;23.20;28.70